sim
Sign-in with your pilot id or email,
or register
Callsign
Passwort

Schedule Details

Flight Number: RYR2987 (1)
Departure: Bratislava M. R. Stefanik Airport (LZIB) at 13:15
Arrival: Nis Constantine the Great Airport (LYNI) at 14:35
Route: Ryanair Passenger Schedule. Enter filed route here before submitting Pirep.

Weather Information
Getting current METAR information for LZIB 280400Z 29006KT CAVOK 13/06 Q1025 NOSIG
Getting current METAR information for LYNI 280400Z 31013KT 9999 FEW017 SCT030 12/10 Q1021 NOSIG

Schedule Frequency

Route Map